sensor_id;sensor_type;location;lat;lon;timestamp;noise_LAeq;noise_LA_min;noise_LA_max;noise_LA01;noise_LA95
70740;Laerm;58330;51.888;11.052;2023-02-28T00:00:06;30.25;28.25;37.67;;
70740;Laerm;58330;51.888;11.052;2023-02-28T00:02:35;30.27;28.23;38.61;;
70740;Laerm;58330;51.888;11.052;2023-02-28T00:05:01;29.60;28.23;31.14;;
70740;Laerm;58330;51.888;11.052;2023-02-28T00:07:28;30.29;28.40;40.00;;
70740;Laerm;58330;51.888;11.052;2023-02-28T00:09:54;30.00;28.40;35.70;;
70740;Laerm;58330;51.888;11.052;2023-02-28T00:12:22;30.53;28.14;39.19;;
70740;Laerm;58330;51.888;11.052;2023-02-28T00:14:48;29.60;28.34;30.84;;
70740;Laerm;58330;51.888;11.052;2023-02-28T00:17:15;30.30;28.24;36.65;;
70740;Laerm;58330;51.888;11.052;2023-02-28T00:19:42;30.42;28.43;35.63;;
70740;Laerm;58330;51.888;11.052;2023-02-28T00:22:09;31.33;28.16;39.07;;
70740;Laerm;58330;51.888;11.052;2023-02-28T00:24:35;29.66;28.36;31.30;;
70740;Laerm;58330;51.888;11.052;2023-02-28T00:27:02;29.89;28.22;36.32;;
70740;Laerm;58330;51.888;11.052;2023-02-28T00:29:29;30.05;28.22;35.40;;
70740;Laerm;58330;51.888;11.052;2023-02-28T00:31:56;30.04;28.39;34.46;;
70740;Laerm;58330;51.888;11.052;2023-02-28T00:34:22;29.56;28.01;30.71;;
70740;Laerm;58330;51.888;11.052;2023-02-28T00:36:48;30.14;28.27;39.36;;
70740;Laerm;58330;51.888;11.052;2023-02-28T00:39:15;30.95;28.17;36.59;;
70740;Laerm;58330;51.888;11.052;2023-02-28T00:41:41;29.55;28.30;30.69;;
70740;Laerm;58330;51.888;11.052;2023-02-28T00:44:08;29.60;28.16;31.04;;
70740;Laerm;58330;51.888;11.052;2023-02-28T00:46:35;29.98;28.46;35.26;;
70740;Laerm;58330;51.888;11.052;2023-02-28T00:49:02;30.75;28.31;39.97;;
70740;Laerm;58330;51.888;11.052;2023-02-28T00:51:28;30.09;28.37;34.85;;
70740;Laerm;58330;51.888;11.052;2023-02-28T00:53:54;30.42;28.38;37.67;;
70740;Laerm;58330;51.888;11.052;2023-02-28T00:56:21;29.70;28.28;31.18;;
70740;Laerm;58330;51.888;11.052;2023-02-28T00:58:47;30.19;28.00;36.66;;
70740;Laerm;58330;51.888;11.052;2023-02-28T01:01:13;30.36;28.12;37.43;;
70740;Laerm;58330;51.888;11.052;2023-02-28T01:03:41;29.57;28.18;31.32;;
70740;Laerm;58330;51.888;11.052;2023-02-28T01:06:08;29.54;27.91;30.82;;
70740;Laerm;58330;51.888;11.052;2023-02-28T01:08:34;29.72;28.26;33.77;;
70740;Laerm;58330;51.888;11.052;2023-02-28T01:11:06;29.64;28.34;30.81;;
70740;Laerm;58330;51.888;11.052;2023-02-28T01:13:33;29.67;28.30;30.86;;
70740;Laerm;58330;51.888;11.052;2023-02-28T01:15:59;31.57;28.43;38.87;;
70740;Laerm;58330;51.888;11.052;2023-02-28T01:18:25;30.06;28.23;35.34;;
70740;Laerm;58330;51.888;11.052;2023-02-28T01:20:53;29.51;28.24;30.72;;
70740;Laerm;58330;51.888;11.052;2023-02-28T01:23:20;29.44;28.22;30.55;;
70740;Laerm;58330;51.888;11.052;2023-02-28T01:25:48;30.24;28.03;37.56;;
70740;Laerm;58330;51.888;11.052;2023-02-28T01:28:14;30.05;28.08;36.62;;
70740;Laerm;58330;51.888;11.052;2023-02-28T01:30:40;30.91;28.33;38.31;;
70740;Laerm;58330;51.888;11.052;2023-02-28T01:33:07;31.33;28.69;37.63;;
70740;Laerm;58330;51.888;11.052;2023-02-28T01:35:33;29.89;28.12;33.39;;
70740;Laerm;58330;51.888;11.052;2023-02-28T01:38:01;29.66;28.21;31.75;;
70740;Laerm;58330;51.888;11.052;2023-02-28T01:40:27;36.11;28.34;55.67;;
70740;Laerm;58330;51.888;11.052;2023-02-28T01:42:54;30.69;28.18;40.76;;
70740;Laerm;58330;51.888;11.052;2023-02-28T01:45:22;29.46;28.11;30.95;;
70740;Laerm;58330;51.888;11.052;2023-02-28T01:47:49;30.68;27.97;37.77;;
70740;Laerm;58330;51.888;11.052;2023-02-28T01:50:18;29.95;28.38;38.63;;
70740;Laerm;58330;51.888;11.052;2023-02-28T01:52:45;30.36;28.22;38.41;;
70740;Laerm;58330;51.888;11.052;2023-02-28T01:55:13;29.63;28.17;31.50;;
70740;Laerm;58330;51.888;11.052;2023-02-28T01:57:41;30.54;27.89;38.60;;
70740;Laerm;58330;51.888;11.052;2023-02-28T02:00:09;29.96;28.47;35.22;;
70740;Laerm;58330;51.888;11.052;2023-02-28T02:02:41;29.73;28.42;31.05;;
70740;Laerm;58330;51.888;11.052;2023-02-28T02:05:11;31.04;28.66;39.94;;
70740;Laerm;58330;51.888;11.052;2023-02-28T02:07:38;30.28;28.40;36.44;;
70740;Laerm;58330;51.888;11.052;2023-02-28T02:10:06;29.93;28.42;33.18;;
70740;Laerm;58330;51.888;11.052;2023-02-28T02:12:42;31.15;28.61;38.29;;
70740;Laerm;58330;51.888;11.052;2023-02-28T02:15:14;30.54;28.57;37.53;;
70740;Laerm;58330;51.888;11.052;2023-02-28T02:17:43;29.94;28.75;31.56;;
70740;Laerm;58330;51.888;11.052;2023-02-28T02:20:24;30.92;28.61;41.01;;
70740;Laerm;58330;51.888;11.052;2023-02-28T02:23:00;31.01;28.85;36.73;;
70740;Laerm;58330;51.888;11.052;2023-02-28T02:25:32;29.94;28.39;33.05;;
70740;Laerm;58330;51.888;11.052;2023-02-28T02:30:54;30.06;28.57;35.25;;
70740;Laerm;58330;51.888;11.052;2023-02-28T02:33:31;31.11;28.59;38.30;;
70740;Laerm;58330;51.888;11.052;2023-02-28T02:36:06;30.51;28.74;37.77;;
70740;Laerm;58330;51.888;11.052;2023-02-28T02:38:34;30.54;28.68;35.65;;
70740;Laerm;58330;51.888;11.052;2023-02-28T02:41:06;30.61;28.67;37.60;;
70740;Laerm;58330;51.888;11.052;2023-02-28T02:43:35;30.51;28.76;36.24;;
70740;Laerm;58330;51.888;11.052;2023-02-28T02:46:04;30.67;28.81;36.51;;
70740;Laerm;58330;51.888;11.052;2023-02-28T02:48:33;30.38;28.55;35.71;;
70740;Laerm;58330;51.888;11.052;2023-02-28T02:51:01;31.02;28.94;37.40;;
70740;Laerm;58330;51.888;11.052;2023-02-28T02:53:30;32.42;28.76;48.03;;
70740;Laerm;58330;51.888;11.052;2023-02-28T02:55:58;30.48;28.71;37.12;;
70740;Laerm;58330;51.888;11.052;2023-02-28T02:58:26;34.29;28.80;46.45;;
70740;Laerm;58330;51.888;11.052;2023-02-28T03:00:56;30.19;28.66;32.47;;
70740;Laerm;58330;51.888;11.052;2023-02-28T03:03:24;30.83;28.78;35.89;;
70740;Laerm;58330;51.888;11.052;2023-02-28T03:05:54;30.84;29.01;35.55;;
70740;Laerm;58330;51.888;11.052;2023-02-28T03:08:21;30.75;28.61;41.60;;
70740;Laerm;58330;51.888;11.052;2023-02-28T03:10:49;30.92;29.14;40.37;;
70740;Laerm;58330;51.888;11.052;2023-02-28T03:13:23;30.20;28.61;31.47;;
70740;Laerm;58330;51.888;11.052;2023-02-28T03:15:55;32.56;28.96;44.69;;
70740;Laerm;58330;51.888;11.052;2023-02-28T03:18:24;30.69;28.53;34.06;;
70740;Laerm;58330;51.888;11.052;2023-02-28T03:20:57;30.78;28.90;36.42;;
70740;Laerm;58330;51.888;11.052;2023-02-28T03:23:28;31.88;28.96;40.23;;
70740;Laerm;58330;51.888;11.052;2023-02-28T03:25:59;31.79;28.59;39.85;;
70740;Laerm;58330;51.888;11.052;2023-02-28T03:28:30;30.41;28.59;35.91;;
70740;Laerm;58330;51.888;11.052;2023-02-28T03:30:58;36.28;28.96;51.96;;
70740;Laerm;58330;51.888;11.052;2023-02-28T03:33:28;32.41;28.83;52.12;;
70740;Laerm;58330;51.888;11.052;2023-02-28T03:35:57;31.84;28.72;57.97;;
70740;Laerm;58330;51.888;11.052;2023-02-28T03:38:26;30.57;28.53;35.15;;
70740;Laerm;58330;51.888;11.052;2023-02-28T03:40:57;30.38;28.46;34.08;;
70740;Laerm;58330;51.888;11.052;2023-02-28T03:43:26;30.48;28.57;33.61;;
70740;Laerm;58330;51.888;11.052;2023-02-28T03:45:54;31.28;28.41;39.32;;
70740;Laerm;58330;51.888;11.052;2023-02-28T03:48:22;32.55;28.72;39.60;;
70740;Laerm;58330;51.888;11.052;2023-02-28T03:50:51;35.65;28.98;48.08;;
70740;Laerm;58330;51.888;11.052;2023-02-28T03:53:21;31.08;28.42;38.39;;
70740;Laerm;58330;51.888;11.052;2023-02-28T03:55:49;30.87;28.64;37.43;;
70740;Laerm;58330;51.888;11.052;2023-02-28T03:58:20;39.10;28.35;56.97;;
70740;Laerm;58330;51.888;11.052;2023-02-28T04:00:50;32.23;28.72;41.33;;
70740;Laerm;58330;51.888;11.052;2023-02-28T04:03:19;30.86;28.54;36.95;;
70740;Laerm;58330;51.888;11.052;2023-02-28T04:05:46;31.99;29.00;38.26;;
70740;Laerm;58330;51.888;11.052;2023-02-28T04:08:15;31.27;28.88;36.74;;
70740;Laerm;58330;51.888;11.052;2023-02-28T04:10:41;31.58;28.87;37.92;;
70740;Laerm;58330;51.888;11.052;2023-02-28T04:13:11;34.33;29.07;46.41;;
70740;Laerm;58330;51.888;11.052;2023-02-28T04:15:38;31.79;28.83;39.46;;
70740;Laerm;58330;51.888;11.052;2023-02-28T04:18:05;37.75;28.81;53.78;;
70740;Laerm;58330;51.888;11.052;2023-02-28T04:20:32;32.58;29.50;38.89;;
70740;Laerm;58330;51.888;11.052;2023-02-28T04:22:58;35.79;29.58;49.57;;
70740;Laerm;58330;51.888;11.052;2023-02-28T04:25:24;32.74;28.72;40.05;;
70740;Laerm;58330;51.888;11.052;2023-02-28T04:27:50;34.68;29.47;47.28;;
70740;Laerm;58330;51.888;11.052;2023-02-28T04:30:17;33.54;28.79;44.98;;
70740;Laerm;58330;51.888;11.052;2023-02-28T04:32:44;35.40;29.87;47.27;;
70740;Laerm;58330;51.888;11.052;2023-02-28T04:35:11;32.38;29.52;36.55;;
70740;Laerm;58330;51.888;11.052;2023-02-28T04:37:37;36.75;29.02;51.08;;
70740;Laerm;58330;51.888;11.052;2023-02-28T04:40:04;35.22;29.58;47.67;;
70740;Laerm;58330;51.888;11.052;2023-02-28T04:42:30;36.92;29.27;51.56;;
70740;Laerm;58330;51.888;11.052;2023-02-28T04:45:00;38.34;30.13;54.98;;
70740;Laerm;58330;51.888;11.052;2023-02-28T04:47:26;37.25;29.75;48.62;;
70740;Laerm;58330;51.888;11.052;2023-02-28T04:49:54;33.63;29.19;40.35;;
70740;Laerm;58330;51.888;11.052;2023-02-28T04:52:20;33.73;29.86;39.65;;
70740;Laerm;58330;51.888;11.052;2023-02-28T04:54:47;33.48;29.75;38.77;;
70740;Laerm;58330;51.888;11.052;2023-02-28T04:57:13;34.12;29.56;47.27;;
70740;Laerm;58330;51.888;11.052;2023-02-28T04:59:39;33.65;29.60;42.76;;
70740;Laerm;58330;51.888;11.052;2023-02-28T05:02:06;33.20;29.31;39.45;;
70740;Laerm;58330;51.888;11.052;2023-02-28T05:04:32;33.56;29.49;40.85;;
70740;Laerm;58330;51.888;11.052;2023-02-28T05:07:00;34.12;30.73;41.47;;
70740;Laerm;58330;51.888;11.052;2023-02-28T05:09:28;33.39;30.23;38.46;;
70740;Laerm;58330;51.888;11.052;2023-02-28T05:11:54;34.00;30.67;41.75;;
70740;Laerm;58330;51.888;11.052;2023-02-28T05:14:21;34.16;30.73;42.78;;
70740;Laerm;58330;51.888;11.052;2023-02-28T05:16:47;33.37;29.66;40.12;;
70740;Laerm;58330;51.888;11.052;2023-02-28T05:19:13;33.27;30.31;38.49;;
70740;Laerm;58330;51.888;11.052;2023-02-28T05:21:40;35.63;30.30;48.55;;
70740;Laerm;58330;51.888;11.052;2023-02-28T05:24:09;34.69;30.46;43.83;;
70740;Laerm;58330;51.888;11.052;2023-02-28T05:26:36;37.02;30.99;51.76;;
70740;Laerm;58330;51.888;11.052;2023-02-28T05:29:03;40.98;31.18;55.64;;
70740;Laerm;58330;51.888;11.052;2023-02-28T05:31:30;36.07;30.79;48.88;;
70740;Laerm;58330;51.888;11.052;2023-02-28T05:33:56;39.22;31.57;52.32;;
70740;Laerm;58330;51.888;11.052;2023-02-28T05:36:22;34.64;30.95;41.69;;
70740;Laerm;58330;51.888;11.052;2023-02-28T05:38:49;36.44;31.31;46.45;;
70740;Laerm;58330;51.888;11.052;2023-02-28T05:41:17;39.91;32.14;49.62;;
70740;Laerm;58330;51.888;11.052;2023-02-28T05:43:45;39.48;31.34;55.32;;
70740;Laerm;58330;51.888;11.052;2023-02-28T05:46:12;39.04;31.59;51.66;;
70740;Laerm;58330;51.888;11.052;2023-02-28T05:48:39;35.71;30.94;46.49;;
70740;Laerm;58330;51.888;11.052;2023-02-28T05:51:06;38.33;32.08;50.04;;
70740;Laerm;58330;51.888;11.052;2023-02-28T05:53:33;39.04;33.48;48.49;;
70740;Laerm;58330;51.888;11.052;2023-02-28T05:56:00;39.39;32.41;50.60;;
70740;Laerm;58330;51.888;11.052;2023-02-28T05:58:28;36.32;31.27;46.15;;
70740;Laerm;58330;51.888;11.052;2023-02-28T06:00:55;38.60;32.24;50.47;;
70740;Laerm;58330;51.888;11.052;2023-02-28T06:03:22;38.65;31.29;50.68;;
70740;Laerm;58330;51.888;11.052;2023-02-28T06:05:49;38.76;31.97;49.36;;
70740;Laerm;58330;51.888;11.052;2023-02-28T06:08:16;43.37;32.39;56.49;;
70740;Laerm;58330;51.888;11.052;2023-02-28T06:10:43;38.13;31.98;53.27;;
70740;Laerm;58330;51.888;11.052;2023-02-28T06:13:10;37.35;32.38;53.60;;
70740;Laerm;58330;51.888;11.052;2023-02-28T06:15:39;38.09;32.15;49.63;;
70740;Laerm;58330;51.888;11.052;2023-02-28T06:18:05;40.46;31.99;66.51;;
70740;Laerm;58330;51.888;11.052;2023-02-28T06:20:32;40.05;32.65;55.14;;
70740;Laerm;58330;51.888;11.052;2023-02-28T06:22:59;40.19;33.06;52.02;;
70740;Laerm;58330;51.888;11.052;2023-02-28T06:25:26;41.42;33.36;53.60;;
70740;Laerm;58330;51.888;11.052;2023-02-28T06:27:53;39.63;33.28;50.02;;
70740;Laerm;58330;51.888;11.052;2023-02-28T06:30:22;39.19;32.79;49.56;;
70740;Laerm;58330;51.888;11.052;2023-02-28T06:32:53;41.16;33.15;53.19;;
70740;Laerm;58330;51.888;11.052;2023-02-28T06:35:19;39.96;34.84;48.03;;
70740;Laerm;58330;51.888;11.052;2023-02-28T06:37:46;40.02;32.06;51.41;;
70740;Laerm;58330;51.888;11.052;2023-02-28T06:40:13;49.95;34.44;57.77;;
70740;Laerm;58330;51.888;11.052;2023-02-28T06:42:41;38.34;32.39;48.65;;
70740;Laerm;58330;51.888;11.052;2023-02-28T06:45:11;40.70;33.32;64.01;;
70740;Laerm;58330;51.888;11.052;2023-02-28T06:47:37;39.47;33.00;53.02;;
70740;Laerm;58330;51.888;11.052;2023-02-28T06:50:06;38.54;31.62;50.57;;
70740;Laerm;58330;51.888;11.052;2023-02-28T06:52:34;41.98;32.31;54.41;;
70740;Laerm;58330;51.888;11.052;2023-02-28T06:55:02;39.62;31.46;51.91;;
70740;Laerm;58330;51.888;11.052;2023-02-28T06:57:29;35.72;30.49;46.11;;
70740;Laerm;58330;51.888;11.052;2023-02-28T06:59:57;36.76;31.75;49.34;;
70740;Laerm;58330;51.888;11.052;2023-02-28T07:02:24;37.38;31.04;47.39;;
70740;Laerm;58330;51.888;11.052;2023-02-28T07:04:50;36.64;31.26;45.81;;
70740;Laerm;58330;51.888;11.052;2023-02-28T07:07:18;37.09;30.26;46.38;;
70740;Laerm;58330;51.888;11.052;2023-02-28T07:09:45;38.83;30.61;51.51;;
70740;Laerm;58330;51.888;11.052;2023-02-28T07:12:11;39.21;30.67;53.26;;
70740;Laerm;58330;51.888;11.052;2023-02-28T07:14:38;37.35;30.91;49.87;;
70740;Laerm;58330;51.888;11.052;2023-02-28T07:17:06;35.63;30.62;46.02;;
70740;Laerm;58330;51.888;11.052;2023-02-28T07:19:33;36.31;29.56;47.81;;
70740;Laerm;58330;51.888;11.052;2023-02-28T07:22:02;36.45;31.56;46.67;;
70740;Laerm;58330;51.888;11.052;2023-02-28T07:24:30;36.98;30.31;51.33;;
70740;Laerm;58330;51.888;11.052;2023-02-28T07:26:57;35.47;31.06;46.05;;
70740;Laerm;58330;51.888;11.052;2023-02-28T07:29:24;36.90;30.82;50.06;;
70740;Laerm;58330;51.888;11.052;2023-02-28T07:31:51;38.71;31.60;47.95;;
70740;Laerm;58330;51.888;11.052;2023-02-28T07:34:18;34.89;30.48;43.41;;
70740;Laerm;58330;51.888;11.052;2023-02-28T07:36:45;34.68;30.25;44.43;;
70740;Laerm;58330;51.888;11.052;2023-02-28T07:39:11;38.42;30.81;54.53;;
70740;Laerm;58330;51.888;11.052;2023-02-28T07:41:39;38.20;30.61;51.41;;
70740;Laerm;58330;51.888;11.052;2023-02-28T07:44:08;38.04;30.80;48.63;;
70740;Laerm;58330;51.888;11.052;2023-02-28T07:46:35;39.14;31.43;49.76;;
70740;Laerm;58330;51.888;11.052;2023-02-28T07:49:05;38.14;30.99;50.34;;
70740;Laerm;58330;51.888;11.052;2023-02-28T07:51:31;37.68;31.09;48.86;;
70740;Laerm;58330;51.888;11.052;2023-02-28T07:53:58;37.09;30.82;47.38;;
70740;Laerm;58330;51.888;11.052;2023-02-28T07:56:25;37.84;30.69;52.21;;
70740;Laerm;58330;51.888;11.052;2023-02-28T07:58:53;34.47;30.08;41.90;;
70740;Laerm;58330;51.888;11.052;2023-02-28T08:01:20;34.40;30.18;40.35;;
70740;Laerm;58330;51.888;11.052;2023-02-28T08:03:46;34.56;30.22;46.87;;
70740;Laerm;58330;51.888;11.052;2023-02-28T08:06:17;37.39;30.02;48.82;;
70740;Laerm;58330;51.888;11.052;2023-02-28T08:08:44;39.60;32.26;50.49;;
70740;Laerm;58330;51.888;11.052;2023-02-28T08:11:10;38.10;31.08;50.50;;
70740;Laerm;58330;51.888;11.052;2023-02-28T08:13:37;36.05;31.16;44.60;;
70740;Laerm;58330;51.888;11.052;2023-02-28T08:16:05;36.55;30.84;48.81;;
70740;Laerm;58330;51.888;11.052;2023-02-28T08:18:32;38.33;32.52;48.09;;
70740;Laerm;58330;51.888;11.052;2023-02-28T08:20:58;37.87;31.44;47.21;;
70740;Laerm;58330;51.888;11.052;2023-02-28T08:23:25;36.74;30.76;47.40;;
70740;Laerm;58330;51.888;11.052;2023-02-28T08:25:54;39.32;32.15;54.38;;
70740;Laerm;58330;51.888;11.052;2023-02-28T08:28:20;39.33;31.93;54.50;;
70740;Laerm;58330;51.888;11.052;2023-02-28T08:30:47;42.92;31.61;64.91;;
70740;Laerm;58330;51.888;11.052;2023-02-28T08:33:15;42.67;32.05;56.70;;
70740;Laerm;58330;51.888;11.052;2023-02-28T08:35:41;40.47;32.58;54.74;;
70740;Laerm;58330;51.888;11.052;2023-02-28T08:38:08;37.91;31.90;50.51;;
70740;Laerm;58330;51.888;11.052;2023-02-28T08:40:34;38.45;32.37;50.54;;
70740;Laerm;58330;51.888;11.052;2023-02-28T08:43:03;36.27;31.77;44.10;;
70740;Laerm;58330;51.888;11.052;2023-02-28T08:45:30;37.17;32.40;47.06;;
70740;Laerm;58330;51.888;11.052;2023-02-28T08:47:56;39.06;32.07;50.79;;
70740;Laerm;58330;51.888;11.052;2023-02-28T08:50:24;40.68;32.39;54.14;;
70740;Laerm;58330;51.888;11.052;2023-02-28T08:52:52;38.42;32.32;48.43;;
70740;Laerm;58330;51.888;11.052;2023-02-28T08:55:18;40.92;31.59;65.66;;
70740;Laerm;58330;51.888;11.052;2023-02-28T08:57:44;40.66;33.29;52.77;;
70740;Laerm;58330;51.888;11.052;2023-02-28T09:00:11;38.29;31.41;50.43;;
70740;Laerm;58330;51.888;11.052;2023-02-28T09:02:38;35.43;30.90;45.42;;
70740;Laerm;58330;51.888;11.052;2023-02-28T09:05:05;34.61;30.66;44.04;;
70740;Laerm;58330;51.888;11.052;2023-02-28T09:07:33;34.89;30.67;46.49;;
70740;Laerm;58330;51.888;11.052;2023-02-28T09:09:59;37.48;31.44;53.06;;
70740;Laerm;58330;51.888;11.052;2023-02-28T09:12:26;36.94;30.36;46.96;;
70740;Laerm;58330;51.888;11.052;2023-02-28T09:14:52;36.68;30.54;45.40;;
70740;Laerm;58330;51.888;11.052;2023-02-28T09:17:19;35.30;30.62;50.72;;
70740;Laerm;58330;51.888;11.052;2023-02-28T09:19:47;34.79;30.06;53.60;;
70740;Laerm;58330;51.888;11.052;2023-02-28T09:22:14;35.67;31.27;44.38;;
70740;Laerm;58330;51.888;11.052;2023-02-28T09:24:42;38.13;31.17;56.85;;
70740;Laerm;58330;51.888;11.052;2023-02-28T09:27:11;35.44;30.49;47.46;;
70740;Laerm;58330;51.888;11.052;2023-02-28T09:29:38;34.60;31.08;41.05;;
70740;Laerm;58330;51.888;11.052;2023-02-28T09:32:14;38.33;31.26;51.32;;
70740;Laerm;58330;51.888;11.052;2023-02-28T09:34:42;35.47;30.36;43.81;;
70740;Laerm;58330;51.888;11.052;2023-02-28T09:37:08;37.96;32.12;53.96;;
70740;Laerm;58330;51.888;11.052;2023-02-28T09:39:35;36.71;28.99;46.87;;
70740;Laerm;58330;51.888;11.052;2023-02-28T09:42:02;35.75;28.99;48.81;;
70740;Laerm;58330;51.888;11.052;2023-02-28T09:44:33;36.67;29.24;51.06;;
70740;Laerm;58330;51.888;11.052;2023-02-28T09:47:04;39.96;30.17;51.57;;
70740;Laerm;58330;51.888;11.052;2023-02-28T09:49:33;37.21;29.82;51.36;;
70740;Laerm;58330;51.888;11.052;2023-02-28T09:52:02;35.31;29.41;45.10;;
70740;Laerm;58330;51.888;11.052;2023-02-28T09:54:30;32.96;28.76;40.03;;
70740;Laerm;58330;51.888;11.052;2023-02-28T09:56:58;36.71;29.82;49.13;;
70740;Laerm;58330;51.888;11.052;2023-02-28T09:59:34;37.58;29.50;55.19;;
70740;Laerm;58330;51.888;11.052;2023-02-28T10:02:13;36.07;28.69;50.25;;
70740;Laerm;58330;51.888;11.052;2023-02-28T10:04:50;34.21;28.82;45.08;;
70740;Laerm;58330;51.888;11.052;2023-02-28T10:07:22;38.32;29.39;56.18;;
70740;Laerm;58330;51.888;11.052;2023-02-28T10:09:53;33.76;27.85;47.48;;
70740;Laerm;58330;51.888;11.052;2023-02-28T10:12:21;34.63;28.95;47.39;;
70740;Laerm;58330;51.888;11.052;2023-02-28T10:14:51;35.21;29.41;46.13;;
70740;Laerm;58330;51.888;11.052;2023-02-28T10:17:19;36.06;28.07;46.92;;
70740;Laerm;58330;51.888;11.052;2023-02-28T10:19:49;38.26;30.21;50.81;;
70740;Laerm;58330;51.888;11.052;2023-02-28T10:22:21;36.78;29.11;58.80;;
70740;Laerm;58330;51.888;11.052;2023-02-28T10:24:48;32.14;28.33;44.77;;
70740;Laerm;58330;51.888;11.052;2023-02-28T10:27:17;37.88;29.29;54.43;;
70740;Laerm;58330;51.888;11.052;2023-02-28T10:29:45;34.32;28.40;47.91;;
70740;Laerm;58330;51.888;11.052;2023-02-28T10:32:14;35.17;27.36;49.36;;
70740;Laerm;58330;51.888;11.052;2023-02-28T10:34:44;36.85;29.47;47.67;;
70740;Laerm;58330;51.888;11.052;2023-02-28T10:37:16;34.41;28.66;47.05;;
70740;Laerm;58330;51.888;11.052;2023-02-28T10:39:45;35.54;29.64;48.52;;
70740;Laerm;58330;51.888;11.052;2023-02-28T10:42:22;37.77;29.02;61.92;;
70740;Laerm;58330;51.888;11.052;2023-02-28T10:45:09;38.66;30.23;52.54;;
70740;Laerm;58330;51.888;11.052;2023-02-28T10:47:39;34.72;30.10;43.67;;
70740;Laerm;58330;51.888;11.052;2023-02-28T10:50:25;35.02;29.12;47.78;;
70740;Laerm;58330;51.888;11.052;2023-02-28T10:52:52;34.11;28.42;47.10;;
70740;Laerm;58330;51.888;11.052;2023-02-28T10:55:20;34.71;28.83;44.48;;
70740;Laerm;58330;51.888;11.052;2023-02-28T10:57:47;41.84;28.87;69.69;;
70740;Laerm;58330;51.888;11.052;2023-02-28T11:00:15;33.77;29.72;46.92;;
70740;Laerm;58330;51.888;11.052;2023-02-28T11:02:43;34.50;29.48;47.17;;
70740;Laerm;58330;51.888;11.052;2023-02-28T11:05:23;37.13;29.67;46.56;;
70740;Laerm;58330;51.888;11.052;2023-02-28T11:07:51;35.37;28.96;48.48;;
70740;Laerm;58330;51.888;11.052;2023-02-28T11:10:19;33.48;29.94;47.75;;
70740;Laerm;58330;51.888;11.052;2023-02-28T11:12:46;34.60;29.50;48.84;;
70740;Laerm;58330;51.888;11.052;2023-02-28T11:15:19;35.21;31.31;43.31;;
70740;Laerm;58330;51.888;11.052;2023-02-28T11:17:53;35.80;30.33;47.28;;
70740;Laerm;58330;51.888;11.052;2023-02-28T11:20:21;33.43;30.01;42.28;;
70740;Laerm;58330;51.888;11.052;2023-02-28T11:22:49;36.64;29.50;49.21;;
70740;Laerm;58330;51.888;11.052;2023-02-28T11:25:19;39.91;30.25;60.49;;
70740;Laerm;58330;51.888;11.052;2023-02-28T11:27:48;36.17;30.18;47.82;;
70740;Laerm;58330;51.888;11.052;2023-02-28T11:30:32;38.57;30.42;58.92;;
70740;Laerm;58330;51.888;11.052;2023-02-28T11:33:01;37.32;30.59;60.76;;
70740;Laerm;58330;51.888;11.052;2023-02-28T11:35:41;37.79;30.61;57.76;;
70740;Laerm;58330;51.888;11.052;2023-02-28T11:38:08;36.25;30.84;57.56;;
70740;Laerm;58330;51.888;11.052;2023-02-28T11:40:39;39.23;31.38;52.87;;
70740;Laerm;58330;51.888;11.052;2023-02-28T11:43:10;34.48;30.11;46.00;;
70740;Laerm;58330;51.888;11.052;2023-02-28T11:45:52;33.82;30.26;42.99;;
70740;Laerm;58330;51.888;11.052;2023-02-28T11:48:25;36.45;30.72;49.31;;
70740;Laerm;58330;51.888;11.052;2023-02-28T11:50:56;34.55;29.82;46.91;;
70740;Laerm;58330;51.888;11.052;2023-02-28T11:53:39;36.85;30.56;48.93;;
70740;Laerm;58330;51.888;11.052;2023-02-28T11:56:12;34.44;29.94;46.18;;
70740;Laerm;58330;51.888;11.052;2023-02-28T11:58:44;34.70;31.27;41.91;;
70740;Laerm;58330;51.888;11.052;2023-02-28T12:01:20;33.57;30.00;39.34;;
70740;Laerm;58330;51.888;11.052;2023-02-28T12:03:54;35.03;30.14;45.68;;
70740;Laerm;58330;51.888;11.052;2023-02-28T12:06:25;35.79;30.79;47.36;;
70740;Laerm;58330;51.888;11.052;2023-02-28T12:09:10;35.55;30.36;47.54;;
70740;Laerm;58330;51.888;11.052;2023-02-28T12:11:45;36.42;31.37;44.77;;
70740;Laerm;58330;51.888;11.052;2023-02-28T12:14:21;35.70;31.20;44.66;;
70740;Laerm;58330;51.888;11.052;2023-02-28T12:16:57;41.93;32.64;53.78;;
70740;Laerm;58330;51.888;11.052;2023-02-28T12:19:29;40.70;31.43;53.59;;
70740;Laerm;58330;51.888;11.052;2023-02-28T12:22:12;36.67;30.02;50.22;;
70740;Laerm;58330;51.888;11.052;2023-02-28T12:24:49;37.41;30.94;51.13;;
70740;Laerm;58330;51.888;11.052;2023-02-28T12:27:19;35.91;30.42;49.51;;
70740;Laerm;58330;51.888;11.052;2023-02-28T12:29:47;40.10;30.91;61.14;;
70740;Laerm;58330;51.888;11.052;2023-02-28T12:32:16;36.31;30.71;49.49;;
70740;Laerm;58330;51.888;11.052;2023-02-28T12:34:47;38.09;30.93;47.61;;
70740;Laerm;58330;51.888;11.052;2023-02-28T12:37:15;36.03;30.88;46.85;;
70740;Laerm;58330;51.888;11.052;2023-02-28T12:39:44;36.08;30.85;49.56;;
70740;Laerm;58330;51.888;11.052;2023-02-28T12:42:11;37.40;31.33;47.14;;
70740;Laerm;58330;51.888;11.052;2023-02-28T12:44:41;37.13;30.90;47.88;;
70740;Laerm;58330;51.888;11.052;2023-02-28T12:47:09;35.85;30.10;47.16;;
70740;Laerm;58330;51.888;11.052;2023-02-28T12:49:39;36.13;30.22;45.57;;
70740;Laerm;58330;51.888;11.052;2023-02-28T12:52:08;36.23;31.59;46.20;;
70740;Laerm;58330;51.888;11.052;2023-02-28T12:54:40;39.20;31.95;50.35;;
70740;Laerm;58330;51.888;11.052;2023-02-28T12:57:11;36.10;30.49;45.65;;
70740;Laerm;58330;51.888;11.052;2023-02-28T12:59:40;36.37;30.61;50.33;;
70740;Laerm;58330;51.888;11.052;2023-02-28T13:02:24;34.24;29.76;45.64;;
70740;Laerm;58330;51.888;11.052;2023-02-28T13:04:58;36.28;30.59;47.73;;
70740;Laerm;58330;51.888;11.052;2023-02-28T13:10:14;36.09;30.38;47.35;;
70740;Laerm;58330;51.888;11.052;2023-02-28T13:12:47;34.61;30.24;43.23;;
70740;Laerm;58330;51.888;11.052;2023-02-28T13:15:16;36.52;30.68;47.03;;
70740;Laerm;58330;51.888;11.052;2023-02-28T13:17:47;34.67;30.84;43.40;;
70740;Laerm;58330;51.888;11.052;2023-02-28T13:20:15;35.89;30.55;47.38;;
70740;Laerm;58330;51.888;11.052;2023-02-28T13:22:42;35.95;30.60;44.79;;
70740;Laerm;58330;51.888;11.052;2023-02-28T13:28:11;36.72;30.70;47.01;;
70740;Laerm;58330;51.888;11.052;2023-02-28T13:33:26;35.84;29.87;45.04;;
70740;Laerm;58330;51.888;11.052;2023-02-28T13:36:01;35.66;30.38;50.06;;
70740;Laerm;58330;51.888;11.052;2023-02-28T13:38:33;37.19;30.96;48.19;;
70740;Laerm;58330;51.888;11.052;2023-02-28T13:44:03;38.83;31.42;52.34;;
70740;Laerm;58330;51.888;11.052;2023-02-28T13:46:30;37.64;31.24;48.61;;
70740;Laerm;58330;51.888;11.052;2023-02-28T13:49:01;40.32;31.92;53.41;;
70740;Laerm;58330;51.888;11.052;2023-02-28T13:51:44;36.90;30.89;51.24;;
70740;Laerm;58330;51.888;11.052;2023-02-28T13:54:24;36.87;30.98;47.57;;